sensor_id;sensor_type;location;lat;lon;timestamp;pressure;altitude;pressure_sealevel;temperature;humidity
63019;BME280;49105;46.046;10.760;2023-02-16T00:00:52;96824.47;;;2.06;54.85
63019;BME280;49105;46.046;10.760;2023-02-16T00:03:19;96824.47;;;2.06;54.81
63019;BME280;49105;46.046;10.760;2023-02-16T00:05:55;96838.16;;;2.08;55.02
63019;BME280;49105;46.046;10.760;2023-02-16T00:08:29;96833.53;;;2.10;54.54
63019;BME280;49105;46.046;10.760;2023-02-16T00:11:01;96830.94;;;2.10;54.38
63019;BME280;49105;46.046;10.760;2023-02-16T00:13:58;96842.75;;;2.06;55.01
63019;BME280;49105;46.046;10.760;2023-02-16T00:16:24;96831.69;;;2.04;54.63
63019;BME280;49105;46.046;10.760;2023-02-16T00:18:58;96836.28;;;2.02;54.78
63019;BME280;49105;46.046;10.760;2023-02-16T00:21:30;96836.91;;;2.04;54.57
63019;BME280;49105;46.046;10.760;2023-02-16T00:23:56;96831.13;;;2.08;54.67
63019;BME280;49105;46.046;10.760;2023-02-16T00:26:32;96826.53;;;2.10;54.44
63019;BME280;49105;46.046;10.760;2023-02-16T00:29:04;96823.72;;;2.12;55.32
63019;BME280;49105;46.046;10.760;2023-02-16T00:31:31;96829.56;;;2.14;54.94
63019;BME280;49105;46.046;10.760;2023-02-16T00:34:33;96817.72;;;2.18;54.90
63019;BME280;49105;46.046;10.760;2023-02-16T00:37:11;96820.59;;;2.23;54.74
63019;BME280;49105;46.046;10.760;2023-02-16T00:39:38;96815.69;;;2.13;54.73
63019;BME280;49105;46.046;10.760;2023-02-16T00:42:20;96816.41;;;2.01;54.87
63019;BME280;49105;46.046;10.760;2023-02-16T00:44:51;96825.19;;;1.93;55.12
63019;BME280;49105;46.046;10.760;2023-02-16T00:47:35;96823.56;;;1.92;54.85
63019;BME280;49105;46.046;10.760;2023-02-16T00:50:09;96825.25;;;1.99;54.87
63019;BME280;49105;46.046;10.760;2023-02-16T00:52:39;96816.41;;;2.01;55.32
63019;BME280;49105;46.046;10.760;2023-02-16T00:55:18;96824.44;;;1.99;55.00
63019;BME280;49105;46.046;10.760;2023-02-16T00:57:48;96827.38;;;1.89;55.48
63019;BME280;49105;46.046;10.760;2023-02-16T01:00:31;96828.03;;;1.77;55.21
63019;BME280;49105;46.046;10.760;2023-02-16T01:03:12;96824.75;;;1.68;55.58
63019;BME280;49105;46.046;10.760;2023-02-16T01:05:38;96829.19;;;1.67;55.62
63019;BME280;49105;46.046;10.760;2023-02-16T01:08:16;96821.78;;;1.71;55.21
63019;BME280;49105;46.046;10.760;2023-02-16T01:11:01;96818.38;;;1.70;55.09
63019;BME280;49105;46.046;10.760;2023-02-16T01:13:46;96817.75;;;1.68;55.45
63019;BME280;49105;46.046;10.760;2023-02-16T01:16:35;96811.22;;;1.58;55.90
63019;BME280;49105;46.046;10.760;2023-02-16T01:19:01;96816.34;;;1.44;55.47
63019;BME280;49105;46.046;10.760;2023-02-16T01:21:27;96817.69;;;1.40;55.91
63019;BME280;49105;46.046;10.760;2023-02-16T01:23:58;96811.47;;;1.41;55.83
63019;BME280;49105;46.046;10.760;2023-02-16T01:26:24;96802.28;;;1.45;55.99
63019;BME280;49105;46.046;10.760;2023-02-16T01:28:50;96808.00;;;1.56;55.61
63019;BME280;49105;46.046;10.760;2023-02-16T01:31:25;96804.78;;;1.54;55.93
63019;BME280;49105;46.046;10.760;2023-02-16T01:33:59;96807.38;;;1.54;55.58
63019;BME280;49105;46.046;10.760;2023-02-16T01:36:40;96800.44;;;1.61;55.73
63019;BME280;49105;46.046;10.760;2023-02-16T01:39:15;96793.97;;;1.57;55.80
63019;BME280;49105;46.046;10.760;2023-02-16T01:44:47;96798.91;;;1.52;56.55
63019;BME280;49105;46.046;10.760;2023-02-16T01:47:33;96795.13;;;1.54;56.27
63019;BME280;49105;46.046;10.760;2023-02-16T01:50:14;96787.13;;;1.56;56.36
63019;BME280;49105;46.046;10.760;2023-02-16T01:53:05;96796.75;;;1.55;56.32
63019;BME280;49105;46.046;10.760;2023-02-16T01:55:43;96786.16;;;1.57;56.01
63019;BME280;49105;46.046;10.760;2023-02-16T02:03:30;96782.22;;;1.46;56.34
63019;BME280;49105;46.046;10.760;2023-02-16T02:06:32;96778.44;;;1.48;56.32
63019;BME280;49105;46.046;10.760;2023-02-16T02:09:06;96780.78;;;1.43;56.02
63019;BME280;49105;46.046;10.760;2023-02-16T02:11:40;96768.88;;;1.34;56.34
63019;BME280;49105;46.046;10.760;2023-02-16T02:14:22;96764.41;;;1.28;56.17
63019;BME280;49105;46.046;10.760;2023-02-16T02:17:05;96762.72;;;1.20;56.77
63019;BME280;49105;46.046;10.760;2023-02-16T02:37:49;96752.09;;;1.22;56.73
63019;BME280;49105;46.046;10.760;2023-02-16T02:45:38;96741.09;;;1.05;57.06
63019;BME280;49105;46.046;10.760;2023-02-16T02:48:10;96738.06;;;1.02;57.30
63019;BME280;49105;46.046;10.760;2023-02-16T02:50:52;96741.91;;;1.06;57.20
63019;BME280;49105;46.046;10.760;2023-02-16T02:53:44;96732.91;;;1.08;57.29
63019;BME280;49105;46.046;10.760;2023-02-16T02:56:16;96738.13;;;1.08;57.02
63019;BME280;49105;46.046;10.760;2023-02-16T02:59:05;96735.97;;;1.12;56.99
63019;BME280;49105;46.046;10.760;2023-02-16T03:01:55;96735.84;;;1.20;56.70
63019;BME280;49105;46.046;10.760;2023-02-16T03:04:25;96725.84;;;1.23;56.69
63019;BME280;49105;46.046;10.760;2023-02-16T03:06:59;96730.22;;;1.23;56.64
63019;BME280;49105;46.046;10.760;2023-02-16T03:09:32;96742.03;;;0.97;57.28
63019;BME280;49105;46.046;10.760;2023-02-16T03:12:05;96736.69;;;0.84;57.57
63019;BME280;49105;46.046;10.760;2023-02-16T03:14:54;96733.38;;;0.76;57.58
63019;BME280;49105;46.046;10.760;2023-02-16T03:17:35;96738.03;;;0.80;57.95
63019;BME280;49105;46.046;10.760;2023-02-16T03:20:20;96735.19;;;0.96;57.63
63019;BME280;49105;46.046;10.760;2023-02-16T03:23:05;96725.38;;;0.98;57.45
63019;BME280;49105;46.046;10.760;2023-02-16T03:25:51;96728.53;;;0.94;57.71
63019;BME280;49105;46.046;10.760;2023-02-16T03:28:37;96734.31;;;0.89;57.88
63019;BME280;49105;46.046;10.760;2023-02-16T03:31:30;96732.91;;;0.87;57.59
63019;BME280;49105;46.046;10.760;2023-02-16T03:33:56;96731.34;;;0.92;57.94
63019;BME280;49105;46.046;10.760;2023-02-16T03:36:57;96733.19;;;0.98;57.22
63019;BME280;49105;46.046;10.760;2023-02-16T03:39:31;96734.66;;;1.01;57.32
63019;BME280;49105;46.046;10.760;2023-02-16T03:41:57;96734.44;;;1.03;57.41
63019;BME280;49105;46.046;10.760;2023-02-16T03:44:31;96729.22;;;1.03;57.48
63019;BME280;49105;46.046;10.760;2023-02-16T03:47:06;96724.41;;;0.99;57.99
63019;BME280;49105;46.046;10.760;2023-02-16T03:49:35;96727.41;;;0.82;57.87
63019;BME280;49105;46.046;10.760;2023-02-16T03:52:06;96729.06;;;0.68;58.03
63019;BME280;49105;46.046;10.760;2023-02-16T03:54:37;96736.25;;;0.66;58.23
63019;BME280;49105;46.046;10.760;2023-02-16T03:57:03;96727.09;;;0.70;58.10
63019;BME280;49105;46.046;10.760;2023-02-16T03:59:34;96730.41;;;0.79;57.96
63019;BME280;49105;46.046;10.760;2023-02-16T04:02:06;96732.13;;;0.71;57.66
63019;BME280;49105;46.046;10.760;2023-02-16T04:04:40;96737.34;;;0.71;58.39
63019;BME280;49105;46.046;10.760;2023-02-16T04:07:06;96729.56;;;0.78;58.03
63019;BME280;49105;46.046;10.760;2023-02-16T04:09:31;96739.47;;;0.83;58.05
63019;BME280;49105;46.046;10.760;2023-02-16T04:12:00;96742.25;;;0.81;58.49
63019;BME280;49105;46.046;10.760;2023-02-16T04:14:44;96733.44;;;0.82;58.45
63019;BME280;49105;46.046;10.760;2023-02-16T04:17:09;96735.88;;;0.84;58.14
63019;BME280;49105;46.046;10.760;2023-02-16T04:19:41;96738.28;;;0.85;57.75
63019;BME280;49105;46.046;10.760;2023-02-16T04:22:13;96736.69;;;0.84;58.30
63019;BME280;49105;46.046;10.760;2023-02-16T04:24:44;96727.31;;;0.90;57.99
63019;BME280;49105;46.046;10.760;2023-02-16T04:27:19;96734.03;;;0.99;57.61
63019;BME280;49105;46.046;10.760;2023-02-16T04:29:44;96728.66;;;0.86;58.16
63019;BME280;49105;46.046;10.760;2023-02-16T04:32:19;96734.19;;;0.76;58.38
63019;BME280;49105;46.046;10.760;2023-02-16T04:37:56;96725.22;;;0.64;58.85
63019;BME280;49105;46.046;10.760;2023-02-16T04:40:30;96721.88;;;0.70;58.54
63019;BME280;49105;46.046;10.760;2023-02-16T04:42:56;96721.16;;;0.76;58.25
63019;BME280;49105;46.046;10.760;2023-02-16T04:45:27;96727.41;;;0.82;58.46
63019;BME280;49105;46.046;10.760;2023-02-16T04:47:53;96724.66;;;0.83;58.65
63019;BME280;49105;46.046;10.760;2023-02-16T04:50:19;96724.66;;;0.83;58.43
63019;BME280;49105;46.046;10.760;2023-02-16T04:52:44;96726.28;;;0.69;58.37
63019;BME280;49105;46.046;10.760;2023-02-16T04:55:21;96726.56;;;0.60;58.67
63019;BME280;49105;46.046;10.760;2023-02-16T04:57:47;96722.97;;;0.61;58.61
63019;BME280;49105;46.046;10.760;2023-02-16T05:00:13;96726.47;;;0.68;58.37
63019;BME280;49105;46.046;10.760;2023-02-16T05:02:38;96725.22;;;0.64;58.79
63019;BME280;49105;46.046;10.760;2023-02-16T05:05:11;96724.06;;;0.52;58.96
63019;BME280;49105;46.046;10.760;2023-02-16T05:07:43;96727.03;;;0.48;58.82
63019;BME280;49105;46.046;10.760;2023-02-16T05:10:14;96724.28;;;0.50;58.79
63019;BME280;49105;46.046;10.760;2023-02-16T05:12:49;96724.72;;;0.54;58.95
63019;BME280;49105;46.046;10.760;2023-02-16T05:15:51;96726.31;;;0.55;59.23
63019;BME280;49105;46.046;10.760;2023-02-16T05:18:23;96728.56;;;0.58;58.79
63019;BME280;49105;46.046;10.760;2023-02-16T05:20:58;96721.81;;;0.63;59.08
63019;BME280;49105;46.046;10.760;2023-02-16T05:23:41;96719.72;;;0.73;58.86
63019;BME280;49105;46.046;10.760;2023-02-16T05:26:07;96724.19;;;0.80;58.78
63019;BME280;49105;46.046;10.760;2023-02-16T05:28:32;96725.81;;;0.81;58.81
63019;BME280;49105;46.046;10.760;2023-02-16T05:31:02;96719.81;;;0.65;58.50
63019;BME280;49105;46.046;10.760;2023-02-16T05:33:34;96720.22;;;0.47;58.84
63019;BME280;49105;46.046;10.760;2023-02-16T05:36:09;96722.22;;;0.45;59.19
63019;BME280;49105;46.046;10.760;2023-02-16T05:38:34;96726.31;;;0.55;59.27
63019;BME280;49105;46.046;10.760;2023-02-16T05:41:00;96723.16;;;0.59;58.46
63019;BME280;49105;46.046;10.760;2023-02-16T05:43:32;96723.38;;;0.58;58.71
63019;BME280;49105;46.046;10.760;2023-02-16T05:45:57;96731.53;;;0.55;58.94
63019;BME280;49105;46.046;10.760;2023-02-16T05:48:32;96732.00;;;0.43;58.99
63019;BME280;49105;46.046;10.760;2023-02-16T05:51:06;96740.91;;;0.34;58.88
63019;BME280;49105;46.046;10.760;2023-02-16T05:53:32;96739.66;;;0.30;59.19
63019;BME280;49105;46.046;10.760;2023-02-16T05:55:57;96734.44;;;0.30;59.27
63019;BME280;49105;46.046;10.760;2023-02-16T05:58:22;96736.31;;;0.36;59.52
63019;BME280;49105;46.046;10.760;2023-02-16T06:00:52;96730.47;;;0.34;59.04
63019;BME280;49105;46.046;10.760;2023-02-16T06:03:24;96737.84;;;0.31;59.89
63019;BME280;49105;46.046;10.760;2023-02-16T06:05:54;96737.66;;;0.32;59.59
63019;BME280;49105;46.046;10.760;2023-02-16T06:08:20;96740.09;;;0.34;59.25
63019;BME280;49105;46.046;10.760;2023-02-16T06:10:48;96746.09;;;0.34;59.45
63019;BME280;49105;46.046;10.760;2023-02-16T06:13:17;96739.72;;;0.37;59.51
63019;BME280;49105;46.046;10.760;2023-02-16T06:15:44;96741.78;;;0.41;59.39
63019;BME280;49105;46.046;10.760;2023-02-16T06:18:10;96748.25;;;0.45;59.25
63019;BME280;49105;46.046;10.760;2023-02-16T06:20:42;96747.34;;;0.38;59.49
63019;BME280;49105;46.046;10.760;2023-02-16T06:23:14;96751.66;;;0.31;59.71
63019;BME280;49105;46.046;10.760;2023-02-16T06:25:52;96756.69;;;0.18;59.67
63019;BME280;49105;46.046;10.760;2023-02-16T06:28:17;96762.38;;;0.21;60.01
63019;BME280;49105;46.046;10.760;2023-02-16T06:30:53;96762.09;;;0.31;59.59
63019;BME280;49105;46.046;10.760;2023-02-16T06:33:25;96759.84;;;0.43;59.29
63019;BME280;49105;46.046;10.760;2023-02-16T06:35:50;96764.59;;;0.39;59.42
63019;BME280;49105;46.046;10.760;2023-02-16T06:38:16;96768.81;;;0.40;59.95
63019;BME280;49105;46.046;10.760;2023-02-16T06:40:41;96765.66;;;0.45;59.78
63019;BME280;49105;46.046;10.760;2023-02-16T06:43:19;96762.69;;;0.48;59.73
63019;BME280;49105;46.046;10.760;2023-02-16T06:45:46;96772.31;;;0.47;59.38
63019;BME280;49105;46.046;10.760;2023-02-16T06:48:12;96775.09;;;0.46;60.04
63019;BME280;49105;46.046;10.760;2023-02-16T06:50:46;96765.13;;;0.49;59.78
63019;BME280;49105;46.046;10.760;2023-02-16T06:56:26;96767.09;;;0.62;60.13
63019;BME280;49105;46.046;10.760;2023-02-16T06:58:55;96769.97;;;0.53;60.22
63019;BME280;49105;46.046;10.760;2023-02-16T07:01:27;96774.22;;;0.54;59.80
63019;BME280;49105;46.046;10.760;2023-02-16T07:03:54;96776.44;;;0.57;59.51
63019;BME280;49105;46.046;10.760;2023-02-16T07:06:27;96775.88;;;0.61;60.09
63019;BME280;49105;46.046;10.760;2023-02-16T07:08:59;96777.41;;;0.70;60.10
63019;BME280;49105;46.046;10.760;2023-02-16T07:11:24;96779.19;;;0.70;59.59
63019;BME280;49105;46.046;10.760;2023-02-16T07:14:02;96772.72;;;0.66;60.01
63019;BME280;49105;46.046;10.760;2023-02-16T07:16:34;96773.00;;;0.71;60.36
63019;BME280;49105;46.046;10.760;2023-02-16T07:19:05;96774.88;;;0.77;59.95
63019;BME280;49105;46.046;10.760;2023-02-16T07:21:40;96777.13;;;0.80;59.68
63019;BME280;49105;46.046;10.760;2023-02-16T07:24:11;96776.31;;;0.80;59.53
63019;BME280;49105;46.046;10.760;2023-02-16T07:26:37;96784.25;;;0.71;59.99
63019;BME280;49105;46.046;10.760;2023-02-16T07:29:05;96781.44;;;0.73;60.26
63019;BME280;49105;46.046;10.760;2023-02-16T07:31:37;96779.09;;;0.78;59.88
63019;BME280;49105;46.046;10.760;2023-02-16T07:34:09;96779.25;;;0.91;60.12
63019;BME280;49105;46.046;10.760;2023-02-16T07:36:34;96778.72;;;0.96;59.65
63019;BME280;49105;46.046;10.760;2023-02-16T07:39:00;96774.09;;;0.98;60.04
63019;BME280;49105;46.046;10.760;2023-02-16T07:41:34;96775.78;;;1.06;59.51
63019;BME280;49105;46.046;10.760;2023-02-16T07:44:06;96778.66;;;1.11;59.58
63019;BME280;49105;46.046;10.760;2023-02-16T07:46:32;96781.91;;;1.13;59.45
63019;BME280;49105;46.046;10.760;2023-02-16T07:49:06;96780.97;;;1.20;59.52
63019;BME280;49105;46.046;10.760;2023-02-16T07:51:38;96780.84;;;1.29;59.52
63019;BME280;49105;46.046;10.760;2023-02-16T07:54:11;96781.19;;;1.40;59.38
63019;BME280;49105;46.046;10.760;2023-02-16T07:56:36;96784.25;;;1.51;59.15
63019;BME280;49105;46.046;10.760;2023-02-16T07:59:08;96780.72;;;1.58;58.79
63019;BME280;49105;46.046;10.760;2023-02-16T08:01:34;96770.84;;;1.54;59.41
63019;BME280;49105;46.046;10.760;2023-02-16T08:04:06;96783.09;;;1.53;59.40
63019;BME280;49105;46.046;10.760;2023-02-16T08:06:33;96774.69;;;1.58;59.10
63019;BME280;49105;46.046;10.760;2023-02-16T08:08:59;96777.56;;;1.63;59.52
63019;BME280;49105;46.046;10.760;2023-02-16T08:11:25;96774.50;;;1.59;59.35
63019;BME280;49105;46.046;10.760;2023-02-16T08:13:51;96780.72;;;1.58;59.58
63019;BME280;49105;46.046;10.760;2023-02-16T08:16:19;96780.72;;;1.58;59.71
63019;BME280;49105;46.046;10.760;2023-02-16T08:18:48;96778.31;;;1.57;60.08
63019;BME280;49105;46.046;10.760;2023-02-16T08:21:23;96779.16;;;1.64;59.85
63019;BME280;49105;46.046;10.760;2023-02-16T08:24:00;96775.97;;;1.68;59.75
63019;BME280;49105;46.046;10.760;2023-02-16T08:26:37;96779.66;;;1.74;59.99
63019;BME280;49105;46.046;10.760;2023-02-16T08:29:12;96774.91;;;1.84;59.81
63019;BME280;49105;46.046;10.760;2023-02-16T08:31:54;96779.41;;;1.97;59.37
63019;BME280;49105;46.046;10.760;2023-02-16T08:34:22;96776.94;;;1.89;59.43
63019;BME280;49105;46.046;10.760;2023-02-16T08:36:53;96779.66;;;1.74;60.05
63019;BME280;49105;46.046;10.760;2023-02-16T08:39:28;96777.41;;;1.71;60.41
63019;BME280;49105;46.046;10.760;2023-02-16T08:42:01;96773.31;;;1.83;60.13
63019;BME280;49105;46.046;10.760;2023-02-16T08:44:37;96779.25;;;1.98;60.03
63019;BME280;49105;46.046;10.760;2023-02-16T08:47:12;96777.16;;;2.15;59.83
63019;BME280;49105;46.046;10.760;2023-02-16T08:49:38;96772.00;;;2.29;59.40
63019;BME280;49105;46.046;10.760;2023-02-16T08:52:09;96759.00;;;2.35;59.37
63019;BME280;49105;46.046;10.760;2023-02-16T08:54:36;96770.41;;;2.34;59.84
63019;BME280;49105;46.046;10.760;2023-02-16T08:57:03;96769.28;;;2.43;59.75
63019;BME280;49105;46.046;10.760;2023-02-16T08:59:29;96773.75;;;2.56;59.86
63019;BME280;49105;46.046;10.760;2023-02-16T09:02:04;96775.84;;;2.74;59.24
63019;BME280;49105;46.046;10.760;2023-02-16T09:04:35;96775.31;;;2.92;59.27
63019;BME280;49105;46.046;10.760;2023-02-16T09:07:02;96772.56;;;3.20;59.34
63019;BME280;49105;46.046;10.760;2023-02-16T09:09:30;96765.59;;;3.54;58.66
63019;BME280;49105;46.046;10.760;2023-02-16T09:11:56;96758.75;;;3.86;58.56
63019;BME280;49105;46.046;10.760;2023-02-16T09:14:22;96755.91;;;4.14;58.31
63019;BME280;49105;46.046;10.760;2023-02-16T09:16:57;96755.47;;;4.30;57.89
63019;BME280;49105;46.046;10.760;2023-02-16T09:19:28;96755.03;;;4.40;57.81
63019;BME280;49105;46.046;10.760;2023-02-16T09:21:53;96754.22;;;4.53;57.54
63019;BME280;49105;46.046;10.760;2023-02-16T09:24:20;96751.78;;;4.58;57.25
63019;BME280;49105;46.046;10.760;2023-02-16T09:26:46;96752.19;;;4.61;57.26
63019;BME280;49105;46.046;10.760;2023-02-16T09:29:12;96742.06;;;4.65;57.03
63019;BME280;49105;46.046;10.760;2023-02-16T09:31:41;96749.69;;;4.73;56.71
63019;BME280;49105;46.046;10.760;2023-02-16T09:34:19;96741.38;;;4.83;56.86
63019;BME280;49105;46.046;10.760;2023-02-16T09:36:54;96751.03;;;4.89;56.42
63019;BME280;49105;46.046;10.760;2023-02-16T09:39:29;96746.41;;;4.91;56.29
63019;BME280;49105;46.046;10.760;2023-02-16T09:47:27;96751.34;;;5.06;55.97
63019;BME280;49105;46.046;10.760;2023-02-16T09:50:03;96754.75;;;5.13;55.99
63019;BME280;49105;46.046;10.760;2023-02-16T09:55:18;96754.69;;;5.26;55.43
63019;BME280;49105;46.046;10.760;2023-02-16T09:58:19;96742.09;;;5.35;55.09
63019;BME280;49105;46.046;10.760;2023-02-16T10:01:02;96739.59;;;5.46;55.15
63019;BME280;49105;46.046;10.760;2023-02-16T10:03:45;96735.13;;;5.54;54.96
63019;BME280;49105;46.046;10.760;2023-02-16T10:06:35;96730.81;;;5.59;54.61
63019;BME280;49105;46.046;10.760;2023-02-16T10:09:36;96725.53;;;5.66;54.68
63019;BME280;49105;46.046;10.760;2023-02-16T10:12:10;96729.88;;;5.79;54.52
63019;BME280;49105;46.046;10.760;2023-02-16T10:14:49;96724.72;;;5.90;54.23
63019;BME280;49105;46.046;10.760;2023-02-16T10:17:35;96724.63;;;6.04;53.73
63019;BME280;49105;46.046;10.760;2023-02-16T10:20:15;96724.34;;;6.12;53.76
63019;BME280;49105;46.046;10.760;2023-02-16T10:25:20;96717.50;;;6.29;53.02
63019;BME280;49105;46.046;10.760;2023-02-16T10:28:20;96718.47;;;6.35;52.72
63019;BME280;49105;46.046;10.760;2023-02-16T10:30:59;96713.78;;;6.37;52.51
63019;BME280;49105;46.046;10.760;2023-02-16T10:33:42;96711.75;;;6.39;52.73
63019;BME280;49105;46.046;10.760;2023-02-16T10:41:35;96700.84;;;6.54;51.90
63019;BME280;49105;46.046;10.760;2023-02-16T10:44:21;96705.78;;;6.62;52.05
63019;BME280;49105;46.046;10.760;2023-02-16T10:47:01;96701.69;;;6.66;51.50
63019;BME280;49105;46.046;10.760;2023-02-16T10:49:29;96704.50;;;6.71;51.58
63019;BME280;49105;46.046;10.760;2023-02-16T10:52:06;96692.72;;;6.74;51.61
63019;BME280;49105;46.046;10.760;2023-02-16T10:54:32;96687.81;;;6.77;51.59
63019;BME280;49105;46.046;10.760;2023-02-16T10:57:25;96691.38;;;6.83;51.45
63019;BME280;49105;46.046;10.760;2023-02-16T10:59:52;96684.19;;;6.90;51.40
63019;BME280;49105;46.046;10.760;2023-02-16T11:02:37;96681.16;;;7.05;51.44
63019;BME280;49105;46.046;10.760;2023-02-16T11:07:55;96675.38;;;7.26;51.09
63019;BME280;49105;46.046;10.760;2023-02-16T11:16:19;96660.78;;;7.54;51.00
63019;BME280;49105;46.046;10.760;2023-02-16T11:19:12;96653.47;;;7.67;50.65
63019;BME280;49105;46.046;10.760;2023-02-16T11:21:54;96642.91;;;7.79;50.59
63019;BME280;49105;46.046;10.760;2023-02-16T11:24:34;96636.72;;;7.97;50.45
63019;BME280;49105;46.046;10.760;2023-02-16T11:29:47;96631.28;;;8.27;49.61
63019;BME280;49105;46.046;10.760;2023-02-16T11:32:14;96628.41;;;8.40;49.50
63019;BME280;49105;46.046;10.760;2023-02-16T11:37:25;96623.38;;;8.67;49.11
63019;BME280;49105;46.046;10.760;2023-02-16T11:42:44;96611.47;;;9.10;47.40
63019;BME280;49105;46.046;10.760;2023-02-16T11:48:33;96603.28;;;9.45;47.50
63019;BME280;49105;46.046;10.760;2023-02-16T11:51:06;96600.09;;;9.60;47.30
63019;BME280;49105;46.046;10.760;2023-02-16T11:53:41;96604.72;;;9.70;47.40
63019;BME280;49105;46.046;10.760;2023-02-16T11:56:21;96588.94;;;9.75;46.52
63019;BME280;49105;46.046;10.760;2023-02-16T12:01:48;96575.00;;;10.02;45.75
63019;BME280;49105;46.046;10.760;2023-02-16T12:04:25;96567.94;;;10.07;45.28
63019;BME280;49105;46.046;10.760;2023-02-16T12:10:02;96557.28;;;10.24;44.33
63019;BME280;49105;46.046;10.760;2023-02-16T12:12:42;96556.72;;;10.22;44.85
63019;BME280;49105;46.046;10.760;2023-02-16T12:15:48;96551.13;;;10.18;44.28
63019;BME280;49105;46.046;10.760;2023-02-16T12:21:30;96539.41;;;10.09;44.21
63019;BME280;49105;46.046;10.760;2023-02-16T12:26:54;96531.94;;;10.06;44.65
63019;BME280;49105;46.046;10.760;2023-02-16T12:29:45;96520.84;;;10.04;45.00
63019;BME280;49105;46.046;10.760;2023-02-16T12:40:49;96511.06;;;10.54;40.90
63019;BME280;49105;46.046;10.760;2023-02-16T12:43:37;96504.78;;;10.65;40.59
63019;BME280;49105;46.046;10.760;2023-02-16T12:46:16;96502.59;;;10.84;40.69
63019;BME280;49105;46.046;10.760;2023-02-16T12:48:53;96510.84;;;10.92;38.29
63019;BME280;49105;46.046;10.760;2023-02-16T12:51:48;96502.44;;;11.01;36.77
63019;BME280;49105;46.046;10.760;2023-02-16T12:54:39;96487.47;;;11.16;36.08
63019;BME280;49105;46.046;10.760;2023-02-16T12:57:17;96489.38;;;11.26;35.67
63019;BME280;49105;46.046;10.760;2023-02-16T12:59:53;96490.47;;;11.30;35.71
63019;BME280;49105;46.046;10.760;2023-02-16T13:02:36;96486.25;;;11.34;35.53
63019;BME280;49105;46.046;10.760;2023-02-16T13:05:20;96474.09;;;11.43;35.09
63019;BME280;49105;46.046;10.760;2023-02-16T13:07:55;96475.47;;;11.51;34.90
63019;BME280;49105;46.046;10.760;2023-02-16T13:10:43;96471.53;;;11.59;34.55
63019;BME280;49105;46.046;10.760;2023-02-16T13:13:17;96467.88;;;11.65;34.63
63019;BME280;49105;46.046;10.760;2023-02-16T13:15:59;96469.75;;;11.70;33.98
63019;BME280;49105;46.046;10.760;2023-02-16T13:18:35;96469.47;;;11.71;33.94
63019;BME280;49105;46.046;10.760;2023-02-16T13:35:24;96455.25;;;11.92;33.72
63019;BME280;49105;46.046;10.760;2023-02-16T13:43:40;96451.56;;;11.94;33.92
63019;BME280;49105;46.046;10.760;2023-02-16T13:46:31;96444.91;;;11.96;33.49
63019;BME280;49105;46.046;10.760;2023-02-16T13:48:59;96449.16;;;11.97;33.24
63019;BME280;49105;46.046;10.760;2023-02-16T13:51:43;96441.47;;;11.96;33.88
63019;BME280;49105;46.046;10.760;2023-02-16T13:54:33;96442.53;;;11.95;33.70
63019;BME280;49105;46.046;10.760;2023-02-16T13:57:00;96435.38;;;11.90;34.22
63019;BME280;49105;46.046;10.760;2023-02-16T14:02:11;96436.94;;;11.91;33.78
63019;BME280;49105;46.046;10.760;2023-02-16T14:07:34;96434.03;;;11.92;33.96
63019;BME280;49105;46.046;10.760;2023-02-16T14:10:03;96432.94;;;11.88;34.29
63019;BME280;49105;46.046;10.760;2023-02-16T14:12:37;96432.66;;;11.85;34.24
63019;BME280;49105;46.046;10.760;2023-02-16T14:15:15;96431.31;;;11.82;34.21
63019;BME280;49105;46.046;10.760;2023-02-16T14:17:42;96437.69;;;11.81;34.27
63019;BME280;49105;46.046;10.760;2023-02-16T14:22:56;96435.50;;;11.68;34.23
63019;BME280;49105;46.046;10.760;2023-02-16T14:25:33;96440.28;;;11.66;34.82
63019;BME280;49105;46.046;10.760;2023-02-16T14:30:55;96440.28;;;11.61;34.60
63019;BME280;49105;46.046;10.760;2023-02-16T14:33:45;96432.81;;;11.58;34.57
63019;BME280;49105;46.046;10.760;2023-02-16T14:36:20;96433.34;;;11.55;34.87
63019;BME280;49105;46.046;10.760;2023-02-16T14:38:54;96445.22;;;11.47;35.22
63019;BME280;49105;46.046;10.760;2023-02-16T14:41:34;96450.25;;;11.43;35.08
63019;BME280;49105;46.046;10.760;2023-02-16T14:52:17;96444.63;;;11.30;35.50
63019;BME280;49105;46.046;10.760;2023-02-16T14:55:13;96448.56;;;11.27;35.59
63019;BME280;49105;46.046;10.760;2023-02-16T15:03:38;96444.50;;;11.14;36.49
63019;BME280;49105;46.046;10.760;2023-02-16T15:06:20;96442.63;;;11.10;36.67
63019;BME280;49105;46.046;10.760;2023-02-16T15:08:52;96443.66;;;11.04;36.38
63019;BME280;49105;46.046;10.760;2023-02-16T15:11:34;96451.63;;;11.04;36.78
63019;BME280;49105;46.046;10.760;2023-02-16T15:14:20;96445.75;;;11.02;36.84
63019;BME280;49105;46.046;10.760;2023-02-16T15:16:52;96452.63;;;10.98;36.85
63019;BME280;49105;46.046;10.760;2023-02-16T15:19:27;96448.09;;;10.93;37.00
63019;BME280;49105;46.046;10.760;2023-02-16T15:22:16;96436.13;;;10.85;37.14
63019;BME280;49105;46.046;10.760;2023-02-16T15:24:42;96455.41;;;10.81;37.60
63019;BME280;49105;46.046;10.760;2023-02-16T15:27:21;96454.09;;;10.78;37.77
63019;BME280;49105;46.046;10.760;2023-02-16T15:30:21;96452.44;;;10.72;37.65
63019;BME280;49105;46.046;10.760;2023-02-16T15:32:54;96448.97;;;10.66;38.30
63019;BME280;49105;46.046;10.760;2023-02-16T15:35:26;96451.53;;;10.61;37.95
63019;BME280;49105;46.046;10.760;2023-02-16T15:38:06;96451.50;;;10.56;38.16
63019;BME280;49105;46.046;10.760;2023-02-16T15:40:38;96457.03;;;10.50;38.35
63019;BME280;49105;46.046;10.760;2023-02-16T15:43:32;96456.13;;;10.39;38.85
63019;BME280;49105;46.046;10.760;2023-02-16T15:46:01;96467.97;;;10.31;38.93
63019;BME280;49105;46.046;10.760;2023-02-16T15:48:35;96461.25;;;10.24;38.89
63019;BME280;49105;46.046;10.760;2023-02-16T15:51:15;96470.13;;;10.12;39.07
63019;BME280;49105;46.046;10.760;2023-02-16T15:54:19;96471.88;;;10.02;40.11
63019;BME280;49105;46.046;10.760;2023-02-16T15:56:52;96466.22;;;9.93;39.55